Oak Island, MN

6:50 AM CDT on July 28, 2015 (GMT -0500)
Flag Island Lighthouse | | Change Station
CLOSE
Current Station
Personal Weather Station
Location: Minnesota, MN
Elevation: 1086 ft
Nearby Weather Stations

Elev 1086 ft 49.32 °N, 94.88 °W | Updated 11 seconds ago

Overcast
Overcast
74.7 °F
Feels Like 74 °F
N
15.0
Wind Variable Wind from SE
Gusts 22.4 mph

Today
High -- | Low -- °F
--% Chance of Precip.
Yesterday
High -- | Low -- °F
Precip. -- in
5:45 AM 9:05 PM
Waxing Gibbous, 89% visible
Pressure 29.68 in
Visibility 10.0 miles
Clouds Overcast 2600 ft
Heat Index 74 °F
Dew Point 72 °F
Humidity 90%
Rainfall 0.00 in
Snow Depth Not available.
UV 1.0 out of 12
Pollen 1.70 out of 12
Air Quality Not available.
Flu Activity Not available.
METAR KFGN 281134Z AUTO 15015G21KT 10SM OVC026 23/21 A2968 RMK AO2

More Conditions Fewer Conditions

Pressure 29.68 in
Visibility 10.0 miles
Clouds Overcast 2600 ft
Heat Index 74 °F
Dew Point 72 °F
Humidity 90%
Rainfall 0.00 in
Snow Depth Not available.
UV 1.0 out of 12
Pollen 1.70 out of 12
Air Quality Not available.
Flu Activity Not available.
METAR KFGN 281134Z AUTO 15015G21KT 10SM OVC026 23/21 A2968 RMK AO2

More Conditions Fewer Conditions

10-Day Weather Forecast

×

Almanac

Astronomy

Jul. 28, 2015 Rise Set
Actual Time
Civil Twilight
Nautical Twilight
Astronomical Twilight
Moon
Length of Visible Light
Length of Day
Tomorrow will be .
, % of the Moon is Illuminated

Today's Extremes

State Highs State Lows

Community

WunderPhotos

Upload Photos

1,841,808 photos uploaded!

WunderBlogs® & News

Nearby

Air Quality

  Air Quality AQ Index Pollutant
Not available.

Snow Depth

Station Depth Elevation

Earthquake Activity

City Distance Mag. Time & Date
Minimum magnitude displayed is 2.5.

Coastal Water Temperatures

Place Temperature

Stations

Nearby Weather Stations

Station Location Temp. Windchill Dew Point Humidity Wind Precip. Elev Updated Type